.
WxDataArchive / Data Records for 2007-05-24
2007-05-23 May 2007 2007-05-25

Data Records for Thursday, 24 May 2007

Time	Temp	Chill	HIndex	Humid	Dewpt	 Wind 	HiWind	WindDir	Rain 	Barom 
-----	----	-----	------	-----	-----	------	------	-------	-----	----- 
00:00	68.9	68.9	68.9	55	52.1	0	0	---	0.00	30.166 
00:05	68.8	68.8	68.8	55	52.0	0	0	---	0.00	30.166 
00:10	68.6	68.6	68.6	56	52.3	0	0	---	0.00	30.168 
00:15	68.6	68.6	68.6	56	52.3	0	1	270	0.00	30.169 
00:20	68.4	68.4	68.4	57	52.6	0	0	---	0.00	30.171 
00:25	68.4	68.4	68.4	57	52.6	0	0	---	0.00	30.172 
00:30	68.4	68.4	68.4	57	52.6	0	0	---	0.00	30.172 
00:35	68.4	68.4	68.4	57	52.6	0	0	---	0.00	30.172 
00:40	68.3	68.3	68.3	57	52.5	0	0	---	0.00	30.173 
00:45	68.1	68.1	68.1	58	52.8	0	0	---	0.00	30.174 
00:50	67.8	67.8	67.8	58	52.5	0	0	---	0.00	30.174 
00:55	67.4	67.4	67.4	59	52.6	0	0	---	0.00	30.174 
01:00	67.3	67.3	67.3	60	52.9	0	0	---	0.00	30.175 
01:05	67.1	67.1	67.1	60	52.7	0	0	---	0.00	30.176 
01:10	66.9	66.9	66.9	60	52.6	0	0	---	0.00	30.179 
01:15	66.9	66.9	66.9	61	53.0	0	0	---	0.00	30.179 
01:20	66.8	66.8	66.8	61	52.9	0	0	---	0.00	30.180 
01:25	66.4	66.4	66.4	62	53.0	0	0	---	0.00	30.180 
01:30	66.3	66.3	66.3	63	53.3	0	0	---	0.00	30.177 
01:35	66.1	66.1	66.1	62	52.7	0	0	---	0.00	30.178 
01:40	66.0	66.0	66.0	63	53.0	0	0	---	0.00	30.179 
01:45	65.8	65.8	65.8	64	53.3	0	0	---	0.00	30.180 
01:50	65.8	65.8	65.8	64	53.3	0	0	---	0.00	30.180 
01:55	65.5	65.5	65.5	64	53.0	0	0	---	0.00	30.180 
02:00	65.3	65.3	65.3	65	53.2	0	0	---	0.00	30.179 
02:05	65.0	65.0	65.0	66	53.4	0	0	---	0.00	30.181 
02:10	64.7	64.7	64.7	66	53.1	0	0	---	0.00	30.182 
02:15	64.5	64.5	64.5	66	52.9	0	0	---	0.00	30.184 
02:20	64.2	64.2	64.2	68	53.4	0	0	---	0.00	30.184 
02:25	64.0	64.0	64.0	68	53.2	0	0	---	0.00	30.184 
02:30	63.7	63.7	63.7	69	53.3	0	0	---	0.00	30.185 
02:35	63.5	63.5	63.5	69	53.1	0	0	---	0.00	30.185 
02:40	63.7	63.7	63.7	69	53.3	0	0	---	0.00	30.185 
02:45	63.5	63.5	63.5	70	53.5	0	0	---	0.00	30.185 
02:50	63.4	63.4	63.4	70	53.4	0	0	---	0.00	30.187 
02:55	63.2	63.2	63.2	71	53.6	0	0	---	0.00	30.186 
03:00	62.9	62.9	62.9	71	53.3	0	0	---	0.00	30.187 
03:05	62.7	62.7	62.7	72	53.5	0	0	---	0.00	30.189 
03:10	62.4	62.4	62.4	73	53.6	0	0	---	0.00	30.188 
03:15	62.1	62.1	62.1	73	53.3	0	0	---	0.00	30.188 
03:20	62.0	62.0	62.0	74	53.6	0	0	---	0.00	30.187 
03:25	61.6	61.6	61.6	75	53.6	0	0	---	0.00	30.188 
03:30	61.6	61.6	61.6	75	53.6	0	0	---	0.00	30.189 
03:35	61.3	61.3	61.3	76	53.7	0	0	---	0.00	30.189 
03:40	61.2	61.2	61.2	76	53.6	0	0	---	0.00	30.192 
03:45	60.9	60.9	60.9	77	53.6	0	0	---	0.00	30.191 
03:50	60.7	60.7	60.7	77	53.4	0	0	---	0.00	30.191 
03:55	60.5	60.5	60.5	77	53.2	0	0	---	0.00	30.192 
04:00	60.2	60.2	60.2	78	53.3	0	0	---	0.00	30.192 
04:05	60.1	60.1	60.1	79	53.6	0	0	---	0.00	30.192 
04:10	59.9	59.9	59.9	79	53.4	0	0	---	0.00	30.192 
04:15	59.8	59.8	59.8	80	53.6	0	0	---	0.00	30.191 
04:20	59.5	59.5	59.5	81	53.7	0	0	---	0.00	30.190 
04:25	59.5	59.5	59.5	81	53.7	0	0	---	0.00	30.192 
04:30	59.5	59.5	59.5	81	53.7	0	0	---	0.00	30.192 
04:35	59.5	59.5	59.5	82	54.0	0	0	---	0.00	30.192 
04:40	59.3	59.3	59.3	82	53.8	0	0	---	0.00	30.193 
04:45	59.2	59.2	59.2	82	53.7	0	0	---	0.00	30.194 
04:50	59.0	59.0	59.0	83	53.8	0	0	---	0.00	30.195 
04:55	58.9	58.9	58.9	83	53.7	0	0	---	0.00	30.195 
05:00	58.9	58.9	58.9	83	53.7	0	0	---	0.00	30.197 
05:05	58.7	58.7	58.7	83	53.5	0	0	---	0.00	30.202 
05:10	58.6	58.6	58.6	84	53.8	0	0	---	0.00	30.206 
05:15	58.4	58.4	58.4	84	53.6	0	0	---	0.00	30.205 
05:20	58.4	58.4	58.4	84	53.6	0	0	---	0.00	30.207 
05:25	58.4	58.4	58.4	84	53.6	0	0	---	0.00	30.209 
05:30	58.4	58.4	58.4	85	53.9	0	0	---	0.00	30.210 
05:35	58.3	58.3	58.3	85	53.8	0	0	---	0.00	30.211 
05:40	58.4	58.4	58.4	85	53.9	0	0	---	0.00	30.212 
05:45	58.6	58.6	58.6	85	54.1	0	0	---	0.00	30.212 
05:50	58.7	58.7	58.7	85	54.2	0	0	---	0.00	30.212 
05:55	59.0	59.0	59.0	85	54.5	0	0	---	0.00	30.215 
06:00	59.2	59.2	59.2	84	54.4	0	0	---	0.00	30.215 
06:05	59.3	59.3	59.3	84	54.5	0	0	---	0.00	30.220 
06:10	59.5	59.5	59.5	84	54.7	0	0	---	0.00	30.222 
06:15	59.8	59.8	59.8	84	55.0	0	0	---	0.00	30.225 
06:20	60.2	60.2	60.2	83	55.0	0	0	---	0.00	30.226 
06:25	60.9	60.9	60.9	82	55.4	0	0	---	0.00	30.227 
06:30	61.8	61.8	61.8	81	55.9	0	0	---	0.00	30.224 
06:35	62.6	62.6	62.6	77	55.3	0	0	---	0.00	30.225 
06:40	63.9	63.9	63.9	72	54.7	0	1	270	0.00	30.224 
06:45	64.7	64.7	64.7	72	55.5	0	0	---	0.00	30.224 
06:50	65.8	65.8	65.8	69	55.3	0	0	---	0.00	30.223 
06:55	66.8	66.8	66.8	69	56.3	0	0	---	0.00	30.223 
07:00	67.8	67.8	67.8	66	56.0	0	0	---	0.00	30.223 
07:05	68.8	68.8	68.8	63	55.7	0	1	270	0.00	30.230 
07:10	69.4	69.4	69.4	64	56.7	0	1	270	0.00	30.230 
07:15	70.6	70.6	70.6	62	56.9	0	1	270	0.00	30.228 
07:20	71.8	71.8	71.8	60	57.2	0	1	270	0.00	30.226 
07:25	72.7	72.7	72.7	58	57.1	0	1	270	0.00	30.227 
07:30	73.5	73.5	73.5	56	56.8	0	2	270	0.00	30.225 
07:35	74.4	74.4	74.4	54	56.7	0	2	270	0.00	30.224 
07:40	75.1	75.1	77.5	57	58.8	0	2	270	0.00	30.226 
07:45	75.6	75.6	77.9	52	56.7	0	2	270	0.00	30.228 
07:50	76.0	76.0	78.1	53	57.6	1	2	270	0.00	30.231 
07:55	76.5	76.5	78.3	51	57.0	0	2	270	0.00	30.232 
08:00	77.0	77.0	78.7	52	58.0	0	1	270	0.00	30.231 
08:05	77.6	77.6	79.0	51	58.0	0	1	270	0.00	30.233 
08:10	77.6	77.6	78.9	49	56.9	1	3	248	0.00	30.234 
08:15	77.4	77.4	78.8	49	56.7	1	3	248	0.00	30.234 
08:20	77.4	77.4	78.8	49	56.7	1	2	248	0.00	30.233 
08:25	77.7	77.7	79.0	50	57.6	1	3	248	0.00	30.233 
08:30	78.3	78.3	79.4	49	57.5	1	3	248	0.00	30.232 
08:35	79.2	79.2	79.8	46	56.6	1	3	45	0.00	30.228 
08:40	79.6	79.6	80.0	44	55.7	1	4	270	0.00	30.231 
08:45	79.8	79.8	80.3	46	57.2	0	2	270	0.00	30.230 
08:50	79.8	79.8	80.0	43	55.3	2	5	248	0.00	30.231 
08:55	80.1	80.1	80.3	44	56.2	1	3	248	0.00	30.229 
09:00	80.5	80.5	80.8	46	57.8	1	4	248	0.00	30.228 
09:05	81.1	81.1	80.8	41	55.1	1	5	270	0.00	30.228 
09:10	81.6	81.6	81.2	41	55.6	1	5	270	0.00	30.225 
09:15	81.8	81.8	81.5	42	56.4	2	5	248	0.00	30.224 
09:20	81.8	81.8	81.3	40	55.1	2	6	248	0.00	30.222 
09:25	82.4	82.4	82.0	42	57.0	1	4	112	0.00	30.220 
09:30	83.2	83.2	82.4	39	55.6	1	5	248	0.00	30.218 
09:35	83.2	83.2	82.4	39	55.6	1	4	270	0.00	30.217 
09:40	83.6	83.6	82.8	39	56.0	1	4	0	0.00	30.217 
09:45	84.0	84.0	83.3	40	57.0	1	6	315	0.00	30.216 
09:50	84.1	84.1	83.2	39	56.4	2	6	270	0.00	30.215 
09:55	84.5	84.5	82.6	32	51.4	2	6	270	0.00	30.217 
10:00	84.3	84.3	82.6	33	52.0	3	9	270	0.00	30.217 
10:05	84.7	84.7	83.0	33	52.4	2	9	270	0.00	30.216 
10:10	84.9	84.9	83.6	36	54.9	2	4	248	0.00	30.215 
10:15	84.7	84.7	82.8	32	51.5	3	6	270	0.00	30.214 
10:20	85.3	85.3	83.5	33	52.9	1	9	112	0.00	30.214 
10:25	85.7	85.7	83.9	33	53.2	2	7	45	0.00	30.210 
10:30	85.5	85.5	83.4	31	51.4	3	10	90	0.00	30.208 
10:35	85.7	85.7	83.6	31	51.5	2	6	270	0.00	30.208 
10:40	85.3	85.3	83.2	31	51.2	2	5	248	0.00	30.206 
10:45	85.7	85.7	83.9	33	53.2	1	5	270	0.00	30.203 
10:50	85.9	85.9	83.5	29	49.9	2	7	270	0.00	30.202 
10:55	85.7	85.7	83.4	29	49.7	3	8	270	0.00	30.201 
11:00	85.9	85.9	84.2	34	54.2	2	6	248	0.00	30.201 
11:05	85.7	85.7	83.5	30	50.7	2	7	248	0.00	30.204 
11:10	85.9	85.9	84.1	33	53.4	2	5	248	0.00	30.204 
11:15	86.3	86.3	84.2	31	52.1	3	7	270	0.00	30.205 
11:20	86.3	86.3	83.9	29	50.3	3	7	270	0.00	30.205 
11:25	86.3	86.3	83.8	28	49.3	3	7	270	0.00	30.205 
11:30	85.9	85.9	83.4	28	49.0	4	9	270	0.00	30.205 
11:35	85.5	85.5	83.2	29	49.6	3	12	270	0.00	30.204 
11:40	86.1	86.1	83.5	27	48.2	2	5	270	0.00	30.203 
11:45	86.3	86.3	83.7	27	48.3	3	10	270	0.00	30.202 
11:50	85.5	85.5	83.0	27	47.7	3	6	270	0.00	30.200 
11:55	86.1	86.1	84.3	33	53.6	2	5	248	0.00	30.196 
12:00	86.5	86.5	84.0	28	49.5	3	11	270	0.00	30.192 
12:05	86.7	86.7	84.0	27	48.7	4	10	270	0.00	30.191 
12:10	86.7	86.7	84.3	29	50.6	3	7	270	0.00	30.190 
12:15	87.0	87.0	84.6	29	50.9	3	10	270	0.00	30.189 
12:20	87.6	87.6	85.2	29	51.4	3	7	248	0.00	30.188 
12:25	88.0	88.0	85.4	28	50.8	3	7	248	0.00	30.186 
12:30	88.2	88.2	85.5	27	50.0	3	9	90	0.00	30.181 
12:35	88.2	88.2	85.9	30	52.8	2	7	270	0.00	30.181 
12:40	88.4	88.4	85.8	28	51.1	2	9	270	0.00	30.181 
12:45	88.0	88.0	85.4	28	50.8	2	6	270	0.00	30.178 
12:50	87.6	87.6	84.9	27	49.4	3	5	270	0.00	30.179 
12:55	87.0	87.0	84.4	28	49.9	3	7	270	0.00	30.174 
13:00	86.7	86.7	84.0	27	48.7	3	5	270	0.00	30.171 
13:05	86.3	86.3	83.8	28	49.3	3	8	270	0.00	30.175 
13:10	87.2	87.2	84.9	30	52.0	3	7	270	0.00	30.170 
13:15	87.0	87.0	84.4	28	49.9	3	7	270	0.00	30.170 
13:20	86.3	86.3	83.8	28	49.3	2	5	270	0.00	30.169 
13:25	86.1	86.1	83.6	28	49.1	3	6	270	0.00	30.164 
13:30	85.9	85.9	83.4	28	49.0	3	6	248	0.00	30.164 
13:35	85.3	85.3	83.0	29	49.4	3	9	270	0.00	30.164 
13:40	85.3	85.3	83.1	30	50.3	2	4	270	0.00	30.161 
13:45	86.1	86.1	84.4	34	54.4	2	10	270	0.00	30.160 
13:50	87.0	87.0	84.3	27	48.9	3	7	270	0.00	30.158 
13:55	86.5	86.5	84.0	28	49.5	3	9	270	0.00	30.158 
14:00	86.3	86.3	83.8	28	49.3	2	5	270	0.00	30.157 
14:05	85.9	85.9	83.4	28	49.0	2	9	248	0.00	30.156 
14:10	86.3	86.3	84.0	30	51.2	1	4	270	0.00	30.153 
14:15	87.4	87.4	84.8	28	50.3	3	6	270	0.00	30.146 
14:20	88.2	88.2	85.8	29	51.9	1	4	270	0.00	30.144 
14:25	88.4	88.4	85.7	27	50.1	3	5	270	0.00	30.141 
14:30	87.2	87.2	84.6	28	50.1	3	7	248	0.00	30.142 
14:35	87.0	87.0	84.4	28	49.9	2	7	68	0.00	30.140 
14:40	87.0	87.0	84.4	28	49.9	1	4	45	0.00	30.140 
14:45	87.2	87.2	84.9	30	52.0	2	9	270	0.00	30.133 
14:50	87.4	87.4	85.3	31	53.0	2	6	68	0.00	30.132 
14:55	88.0	88.0	85.4	28	50.8	3	9	270	0.00	30.129 
15:00	88.6	88.6	86.0	28	51.3	2	5	248	0.00	30.129 
15:05	88.6	88.6	85.6	25	48.2	3	6	270	0.00	30.129 
15:10	88.8	88.8	86.1	27	50.5	2	6	112	0.00	30.125 
15:15	88.8	88.8	86.1	27	50.5	3	11	270	0.00	30.120 
15:20	88.4	88.4	85.7	27	50.1	2	5	270	0.00	30.124 
15:25	88.0	88.0	85.4	28	50.8	2	6	90	0.00	30.118 
15:30	88.0	88.0	85.3	27	49.8	3	10	90	0.00	30.119 
15:35	87.4	87.4	84.8	28	50.3	2	6	112	0.00	30.120 
15:40	86.7	86.7	84.1	28	49.7	2	8	112	0.00	30.118 
15:45	87.0	87.0	84.3	27	48.9	2	7	292	0.00	30.119 
15:50	87.6	87.6	85.0	28	50.4	2	5	22	0.00	30.118 
15:55	88.0	88.0	85.4	28	50.8	3	9	68	0.00	30.114 
16:00	87.6	87.6	85.3	30	52.3	2	6	112	0.00	30.114 
16:05	87.6	87.6	84.9	27	49.4	3	10	68	0.00	30.113 
16:10	87.0	87.0	84.3	27	48.9	3	9	112	0.00	30.114 
16:15	86.5	86.5	84.1	29	50.4	3	9	248	0.00	30.113 
16:20	87.0	87.0	84.6	29	50.9	2	4	90	0.00	30.112 
16:25	87.0	87.0	84.4	28	49.9	2	6	90	0.00	30.111 
16:30	87.4	87.4	85.0	29	51.2	3	13	90	0.00	30.113 
16:35	87.6	87.6	85.2	29	51.4	3	9	248	0.00	30.110 
16:40	87.6	87.6	85.0	28	50.4	3	13	270	0.00	30.109 
16:45	87.6	87.6	85.0	28	50.4	2	9	248	0.00	30.110 
16:50	87.4	87.4	84.7	27	49.3	1	5	248	0.00	30.111 
16:55	87.4	87.4	84.8	28	50.3	2	5	270	0.00	30.107 
17:00	87.6	87.6	84.9	27	49.4	2	4	248	0.00	30.107 
17:05	87.6	87.6	85.0	28	50.4	1	5	270	0.00	30.107 
17:10	87.6	87.6	85.0	28	50.4	3	7	248	0.00	30.110 
17:15	87.4	87.4	85.0	29	51.2	2	7	248	0.00	30.105 
17:20	87.2	87.2	84.5	27	49.1	2	9	248	0.00	30.107 
17:25	87.0	87.0	84.4	28	49.9	2	6	90	0.00	30.106 
17:30	86.5	86.5	84.1	29	50.4	3	11	90	0.00	30.107 
17:35	86.1	86.1	83.7	29	50.1	2	9	338	0.00	30.109 
17:40	86.1	86.1	84.0	31	51.9	1	6	68	0.00	30.109 
17:45	86.1	86.1	84.0	31	51.9	1	5	248	0.00	30.106 
17:50	85.9	85.9	83.5	29	49.9	2	6	68	0.00	30.104 
17:55	85.7	85.7	83.5	30	50.7	2	7	248	0.00	30.107 
18:00	85.5	85.5	83.3	30	50.5	3	11	270	0.00	30.105 
18:05	85.3	85.3	83.2	31	51.2	1	5	45	0.00	30.098 
18:10	85.1	85.1	83.2	32	51.9	2	6	22	0.00	30.096 
18:15	85.1	85.1	83.1	31	51.0	3	8	112	0.00	30.097 
18:20	84.9	84.9	83.0	32	51.7	2	9	90	0.00	30.098 
18:25	84.5	84.5	82.8	33	52.2	1	3	45	0.00	30.097 
18:30	84.1	84.1	82.4	33	51.9	2	7	68	0.00	30.098 
18:35	84.0	84.0	82.5	34	52.6	2	7	45	0.00	30.098 
18:40	83.8	83.8	82.3	34	52.4	1	6	90	0.00	30.096 
18:45	83.6	83.6	82.2	35	53.0	1	4	68	0.00	30.096 
18:50	83.4	83.4	82.1	35	52.8	2	5	270	0.00	30.097 
18:55	83.2	83.2	81.9	35	52.7	1	6	22	0.00	30.098 
19:00	82.8	82.8	81.7	36	53.1	1	4	338	0.00	30.099 
19:05	82.4	82.4	81.4	37	53.5	2	4	112	0.00	30.090 
19:10	82.2	82.2	81.3	37	53.3	1	4	90	0.00	30.093 
19:15	82.0	82.0	81.2	38	53.9	1	3	112	0.00	30.093 
19:20	81.6	81.6	81.1	40	54.9	1	4	68	0.00	30.095 
19:25	81.4	81.4	80.9	39	54.0	1	3	315	0.00	30.095 
19:30	81.2	81.2	80.7	39	53.9	1	7	270	0.00	30.095 
19:35	81.1	81.1	80.6	39	53.8	2	10	22	0.00	30.098 
19:40	80.9	80.9	80.6	40	54.3	1	4	68	0.00	30.101 
19:45	80.3	80.3	80.2	41	54.4	1	4	0	0.00	30.103 
19:50	80.1	80.1	80.2	42	54.9	0	3	292	0.00	30.107 
19:55	79.8	79.8	80.0	43	55.3	1	4	270	0.00	30.108 
20:00	79.6	79.6	79.9	43	55.1	0	2	270	0.00	30.108 
20:05	79.4	79.4	79.8	43	54.9	1	5	270	0.00	30.105 
20:10	79.2	79.2	79.6	43	54.7	1	5	112	0.00	30.106 
20:15	79.0	79.0	79.6	44	55.2	1	4	270	0.00	30.109 
20:20	79.2	79.2	79.6	43	54.7	1	4	292	0.00	30.109 
20:25	79.0	79.0	79.5	43	54.6	1	5	248	0.00	30.115 
20:30	78.8	78.8	79.4	44	55.0	1	4	292	0.00	30.113 
20:35	78.6	78.6	79.3	44	54.8	1	5	292	0.00	30.115 
20:40	78.8	78.8	79.4	43	54.4	2	6	248	0.00	30.116 
20:45	78.8	78.8	79.4	44	55.0	2	6	248	0.00	30.117 
20:50	78.5	78.5	79.2	44	54.7	1	4	292	0.00	30.117 
20:55	78.1	78.1	79.0	45	55.0	1	5	270	0.00	30.121 
21:00	77.9	77.9	78.9	45	54.8	1	4	270	0.00	30.121 
21:05	77.7	77.7	78.8	45	54.6	1	4	270	0.00	30.118 
21:10	77.6	77.6	78.8	46	55.2	1	4	270	0.00	30.120 
21:15	77.2	77.2	78.5	45	54.2	1	5	270	0.00	30.122 
21:20	77.0	77.0	78.5	46	54.6	1	4	248	0.00	30.122 
21:25	76.8	76.8	78.4	46	54.4	1	5	270	0.00	30.123 
21:30	76.8	76.8	78.4	46	54.4	1	4	248	0.00	30.125 
21:35	76.8	76.8	78.4	46	54.4	1	3	248	0.00	30.125 
21:40	76.5	76.5	78.3	47	54.7	1	5	292	0.00	30.128 
21:45	76.5	76.5	78.3	47	54.7	1	4	248	0.00	30.126 
21:50	76.5	76.5	78.3	47	54.7	1	3	248	0.00	30.128 
21:55	76.5	76.5	78.3	47	54.7	1	5	270	0.00	30.131 
22:00	76.5	76.5	78.3	48	55.3	2	5	270	0.00	30.134 
22:05	76.3	76.3	78.2	48	55.1	1	5	270	0.00	30.132 
22:10	76.0	76.0	78.1	50	56.0	0	3	248	0.00	30.132 
22:15	75.6	75.6	77.9	50	55.6	0	2	248	0.00	30.130 
22:20	75.6	75.6	77.9	50	55.6	1	3	270	0.00	30.131 
22:25	75.4	75.4	77.8	51	56.0	1	2	315	0.00	30.134 
22:30	75.3	75.3	77.7	51	55.9	1	5	248	0.00	30.133 
22:35	75.3	75.3	77.7	51	55.9	1	4	248	0.00	30.133 
22:40	75.1	75.1	77.7	51	55.7	1	4	248	0.00	30.132 
22:45	75.1	75.1	77.6	52	56.3	0	2	270	0.00	30.131 
22:50	74.9	74.9	74.9	52	56.1	1	4	270	0.00	30.131 
22:55	74.6	74.6	74.6	53	56.3	0	3	225	0.00	30.131 
23:00	74.4	74.4	74.4	54	56.7	0	3	225	0.00	30.132 
23:05	74.0	74.0	74.0	54	56.3	0	1	225	0.00	30.130 
23:10	73.9	73.9	73.9	55	56.7	0	2	225	0.00	30.129 
23:15	73.7	73.7	73.7	55	56.5	0	1	225	0.00	30.129 
23:20	73.3	73.3	73.3	56	56.6	0	1	225	0.00	30.129 
23:25	73.0	73.0	73.0	57	56.9	0	1	225	0.00	30.127 
23:30	72.7	72.7	72.7	58	57.1	0	1	225	0.00	30.128 
23:35	72.3	72.3	72.3	58	56.7	0	3	135	0.00	30.129 
23:40	72.1	72.1	72.1	59	57.0	0	0	---	0.00	30.131 
23:45	72.0	72.0	72.0	60	57.3	0	2	135	0.00	30.129 
23:50	72.0	72.0	72.0	60	57.3	0	1	270	0.00	30.128 
23:55	71.8	71.8	71.8	60	57.2	0	1	270	0.00	30.125 

CoCoRaHS
IN-AL-39
A2 Web Hosting
Creative Commons License
GoDaddy
Look for:

loaded 2017-12-12 14:59:12 • last modified 2010-11-18 10:43:29
Privacy PolicyDisclaimer
• wx.awcolley.com is powered by PmWiki v.2002016 •
• all content (unless otherwise noted) © 2017 A W Colley